createdAt,value
2019-04-16T00:00:31.916Z,5.47
2019-04-16T00:03:00.049Z,5.55
2019-04-16T00:05:43.309Z,5.47
2019-04-16T00:08:27.382Z,5.39
2019-04-16T00:10:57.785Z,5.29
2019-04-16T00:13:48.231Z,5.29
2019-04-16T00:16:16.379Z,5.19
2019-04-16T00:18:56.690Z,5.19
2019-04-16T00:21:33.017Z,5.14
2019-04-16T00:24:20.768Z,5.11
2019-04-16T00:26:57.847Z,5.08
2019-04-16T00:29:23.731Z,5.10
2019-04-16T00:32:02.104Z,5.03
2019-04-16T00:34:30.262Z,4.97
2019-04-16T00:36:58.750Z,4.91
2019-04-16T00:39:26.878Z,4.91
2019-04-16T00:41:55.462Z,4.89
2019-04-16T00:44:23.767Z,4.81
2019-04-16T00:46:52.097Z,4.79
2019-04-16T00:49:20.343Z,4.73
2019-04-16T00:51:48.632Z,4.72
2019-04-16T00:54:16.987Z,4.75
2019-04-16T00:56:46.743Z,4.64
2019-04-16T00:59:15.239Z,4.62
2019-04-16T01:01:43.688Z,4.55
2019-04-16T01:04:12.394Z,4.59
2019-04-16T01:06:41.342Z,4.55
2019-04-16T01:09:09.716Z,4.51
2019-04-16T01:11:37.858Z,4.48
2019-04-16T01:14:06.046Z,4.41
2019-04-16T01:16:34.392Z,4.43
2019-04-16T01:19:02.635Z,4.32
2019-04-16T01:21:30.808Z,4.27
2019-04-16T01:23:59.447Z,4.33
2019-04-16T01:26:28.077Z,4.25
2019-04-16T01:29:05.302Z,4.23
2019-04-16T01:31:53.134Z,4.11
2019-04-16T01:34:48.322Z,4.14
2019-04-16T01:37:25.528Z,4.15
2019-04-16T01:39:54.616Z,4.04
2019-04-16T01:42:23.684Z,4.09
2019-04-16T01:44:53.075Z,4.01
2019-04-16T01:47:21.224Z,3.99
2019-04-16T01:49:49.584Z,3.93
2019-04-16T01:52:18.942Z,3.91
2019-04-16T01:54:48.181Z,3.74
2019-04-16T01:57:16.315Z,3.75
2019-04-16T01:59:44.561Z,3.77
2019-04-16T02:02:15.577Z,3.78
2019-04-16T02:04:42.879Z,3.68
2019-04-16T02:07:12.486Z,3.68
2019-04-16T02:09:40.924Z,3.60
2019-04-16T02:12:12.802Z,3.63
2019-04-16T02:14:40.940Z,3.59
2019-04-16T02:17:09.223Z,3.59
2019-04-16T02:19:37.429Z,3.58
2019-04-16T02:22:05.803Z,3.55
2019-04-16T02:24:33.924Z,3.45
2019-04-16T02:27:02.164Z,3.38
2019-04-16T02:29:30.698Z,3.34
2019-04-16T02:31:59.032Z,3.36
2019-04-16T02:34:27.993Z,3.33
2019-04-16T02:37:00.826Z,3.32
2019-04-16T02:39:46.666Z,3.28
2019-04-16T02:41:58.165Z,3.19
2019-04-16T02:44:26.835Z,3.19
2019-04-16T02:46:55.026Z,3.15
2019-04-16T02:49:25.158Z,3.07
2019-04-16T02:51:59.231Z,3.04
2019-04-16T02:54:34.278Z,3.08
2019-04-16T02:57:25.930Z,3.00
2019-04-16T02:59:51.560Z,2.96
2019-04-16T03:02:42.103Z,2.96
2019-04-16T03:05:29.068Z,2.88
2019-04-16T03:08:01.498Z,2.91
2019-04-16T03:10:29.024Z,2.97
2019-04-16T03:12:57.307Z,2.87
2019-04-16T03:15:48.411Z,2.79
2019-04-16T03:18:18.191Z,2.80
2019-04-16T03:20:46.357Z,2.73
2019-04-16T03:23:15.671Z,2.73
2019-04-16T03:25:44.374Z,2.74
2019-04-16T03:28:13.506Z,2.83
2019-04-16T03:30:42.829Z,2.71
2019-04-16T03:33:14.383Z,2.70
2019-04-16T03:35:41.785Z,2.59
2019-04-16T03:38:10.051Z,2.53
2019-04-16T03:40:38.533Z,2.48
2019-04-16T03:43:06.818Z,2.48
2019-04-16T03:45:37.587Z,2.48
2019-04-16T03:48:05.863Z,2.45
2019-04-16T03:50:34.172Z,2.47
2019-04-16T03:53:02.360Z,2.34
2019-04-16T03:55:30.566Z,2.33
2019-04-16T03:57:58.780Z,2.28
2019-04-16T04:00:27.030Z,2.26
2019-04-16T04:02:55.490Z,2.22
2019-04-16T04:05:23.850Z,2.23
2019-04-16T04:07:55.066Z,2.15
2019-04-16T04:10:30.305Z,2.23
2019-04-16T04:12:52.821Z,2.19
2019-04-16T04:15:26.027Z,2.10
2019-04-16T04:17:51.857Z,2.16
2019-04-16T04:20:20.063Z,2.18
2019-04-16T04:22:48.221Z,2.22
2019-04-16T04:25:16.517Z,2.18
2019-04-16T04:27:46.650Z,2.17
2019-04-16T04:30:17.374Z,2.12
2019-04-16T04:32:47.550Z,2.09
2019-04-16T04:35:20.215Z,2.12
2019-04-16T04:37:45.914Z,2.17
2019-04-16T04:40:15.882Z,2.04
2019-04-16T04:42:44.605Z,2.11
2019-04-16T04:45:12.998Z,2.08
2019-04-16T04:47:41.147Z,2.10
2019-04-16T04:50:09.701Z,2.10
2019-04-16T04:52:37.867Z,2.18
2019-04-16T04:55:06.571Z,2.10
2019-04-16T04:57:34.710Z,2.10
2019-04-16T05:00:05.625Z,2.09
2019-04-16T05:02:34.294Z,2.23
2019-04-16T05:05:25.652Z,2.24
2019-04-16T05:07:53.372Z,2.28
2019-04-16T05:10:21.692Z,2.22
2019-04-16T05:12:52.931Z,2.33
2019-04-16T05:15:21.091Z,2.30
2019-04-16T05:17:49.248Z,2.38
2019-04-16T05:20:17.940Z,2.37
2019-04-16T05:22:46.450Z,2.43
2019-04-16T05:25:15.270Z,2.55
2019-04-16T05:27:43.865Z,2.57
2019-04-16T05:30:13.137Z,2.70
2019-04-16T05:32:42.015Z,2.68
2019-04-16T05:35:10.931Z,2.83
2019-04-16T05:37:40.019Z,2.96
2019-04-16T05:40:08.380Z,2.91
2019-04-16T05:42:36.886Z,3.10
2019-04-16T05:45:06.423Z,3.36
2019-04-16T05:47:34.908Z,3.58
2019-04-16T05:50:03.635Z,3.71
2019-04-16T05:52:32.355Z,3.83
2019-04-16T05:55:08.669Z,4.15
2019-04-16T05:57:39.041Z,4.09
2019-04-16T06:00:16.430Z,4.01
2019-04-16T06:02:49.790Z,4.28
2019-04-16T06:05:14.914Z,4.50
2019-04-16T06:07:43.204Z,4.54
2019-04-16T06:10:17.131Z,4.54
2019-04-16T06:13:04.184Z,4.64
2019-04-16T06:15:52.986Z,4.77
2019-04-16T06:18:37.041Z,4.69
2019-04-16T06:21:35.021Z,4.97
2019-04-16T06:24:22.874Z,5.30
2019-04-16T06:27:05.372Z,5.12
2019-04-16T06:30:02.403Z,5.19
2019-04-16T06:32:56.353Z,5.07
2019-04-16T06:35:43.929Z,5.45
2019-04-16T06:38:18.713Z,5.41
2019-04-16T06:41:03.227Z,5.49
2019-04-16T06:43:34.945Z,5.41
2019-04-16T06:46:21.880Z,5.42
2019-04-16T06:49:01.772Z,5.86
2019-04-16T06:51:55.777Z,5.63
2019-04-16T06:54:38.392Z,5.98
2019-04-16T06:57:15.312Z,6.15
2019-04-16T07:00:08.940Z,6.22
2019-04-16T07:03:05.568Z,6.19
2019-04-16T07:06:03.654Z,6.41
2019-04-16T07:08:43.676Z,6.34
2019-04-16T07:11:11.860Z,6.62
2019-04-16T07:13:42.204Z,6.66
2019-04-16T07:16:10.656Z,6.72
2019-04-16T07:18:39.343Z,6.85
2019-04-16T07:21:07.683Z,6.81
2019-04-16T07:23:35.974Z,7.00
2019-04-16T07:26:04.851Z,7.43
2019-04-16T07:28:58.529Z,7.59
2019-04-16T07:31:34.498Z,7.65
2019-04-16T07:34:32.642Z,7.78
2019-04-16T07:37:23.191Z,7.79
2019-04-16T07:39:59.517Z,8.02
2019-04-16T07:42:52.121Z,8.15
2019-04-16T07:45:44.872Z,7.87
2019-04-16T07:48:22.712Z,8.13
2019-04-16T07:51:11.279Z,8.58
2019-04-16T07:53:57.649Z,8.71
2019-04-16T07:56:26.169Z,8.78
2019-04-16T07:58:54.749Z,9.13
2019-04-16T08:01:24.626Z,9.07
2019-04-16T08:03:52.814Z,8.92
2019-04-16T08:06:20.948Z,9.18
2019-04-16T08:08:49.317Z,9.07
2019-04-16T08:11:17.460Z,8.71
2019-04-16T08:13:45.883Z,8.90
2019-04-16T08:16:14.392Z,9.01
2019-04-16T08:18:51.710Z,9.53
2019-04-16T08:21:22.459Z,9.56
2019-04-16T08:23:55.965Z,9.66
2019-04-16T08:26:24.411Z,9.54
2019-04-16T08:28:52.603Z,9.64
2019-04-16T08:31:26.007Z,9.94
2019-04-16T08:33:54.317Z,10.04
2019-04-16T08:36:22.441Z,10.06
2019-04-16T08:38:50.575Z,10.43
2019-04-16T08:41:21.378Z,10.40
2019-04-16T08:43:48.820Z,10.79
2019-04-16T08:46:17.041Z,10.85
2019-04-16T08:48:48.926Z,10.78
2019-04-16T08:51:29.353Z,10.93
2019-04-16T08:53:46.750Z,11.09
2019-04-16T08:56:15.492Z,11.03
2019-04-16T08:58:43.745Z,10.75
2019-04-16T09:01:15.446Z,11.01
2019-04-16T09:03:45.273Z,11.23
2019-04-16T09:06:14.282Z,11.26
2019-04-16T09:09:12.780Z,11.08
2019-04-16T09:11:35.457Z,11.23
2019-04-16T09:14:03.824Z,11.45
2019-04-16T09:16:34.229Z,11.48
2019-04-16T09:19:08.652Z,11.39
2019-04-16T09:21:37.092Z,11.73
2019-04-16T09:24:23.743Z,12.21
2019-04-16T09:27:14.322Z,12.19
2019-04-16T09:30:02.764Z,12.29
2019-04-16T09:32:53.474Z,11.96
2019-04-16T09:35:27.621Z,11.76
2019-04-16T09:38:21.429Z,11.75
2019-04-16T09:41:12.816Z,11.78
2019-04-16T09:43:44.159Z,12.03
2019-04-16T09:46:21.234Z,11.55
2019-04-16T09:48:42.529Z,11.50
2019-04-16T09:51:10.695Z,12.02
2019-04-16T09:53:40.438Z,11.97
2019-04-16T09:56:29.989Z,12.21
2019-04-16T09:59:02.633Z,12.23
2019-04-16T10:01:37.544Z,12.45
2019-04-16T10:04:06.538Z,12.22
2019-04-16T10:06:34.833Z,12.56
2019-04-16T10:09:05.153Z,12.50
2019-04-16T10:11:35.705Z,12.49
2019-04-16T10:14:03.915Z,12.35
2019-04-16T10:16:32.359Z,13.14
2019-04-16T10:19:00.590Z,12.82
2019-04-16T10:21:29.357Z,12.60
2019-04-16T10:24:26.441Z,12.60
2019-04-16T10:26:56.954Z,13.12
2019-04-16T10:29:26.361Z,13.15
2019-04-16T10:31:55.174Z,13.20
2019-04-16T10:34:23.508Z,13.20
2019-04-16T10:36:51.723Z,13.21
2019-04-16T10:39:38.541Z,13.04
2019-04-16T10:42:33.624Z,13.25
2019-04-16T10:45:20.476Z,13.49
2019-04-16T10:48:11.121Z,13.71
2019-04-16T10:51:15.185Z,13.97
2019-04-16T10:53:50.995Z,13.97
2019-04-16T10:56:38.857Z,13.81
2019-04-16T10:59:25.439Z,13.79
2019-04-16T11:02:19.052Z,13.51
2019-04-16T11:05:10.012Z,13.95
2019-04-16T11:07:38.665Z,13.51
2019-04-16T11:10:07.373Z,13.70
2019-04-16T11:12:35.594Z,13.69
2019-04-16T11:15:04.885Z,13.86
2019-04-16T11:17:33.057Z,13.84
2019-04-16T11:20:01.340Z,14.03
2019-04-16T11:22:29.478Z,13.81
2019-04-16T11:24:57.687Z,14.38
2019-04-16T11:27:25.974Z,14.69
2019-04-16T11:29:54.113Z,14.16
2019-04-16T11:32:25.841Z,14.36
2019-04-16T11:34:54.155Z,13.91
2019-04-16T11:37:22.399Z,13.91
2019-04-16T11:39:50.619Z,14.18
2019-04-16T11:42:18.916Z,14.09
2019-04-16T11:44:50.116Z,14.15
2019-04-16T11:47:17.808Z,14.54
2019-04-16T11:49:46.498Z,14.56
2019-04-16T11:52:15.055Z,14.63
2019-04-16T11:54:46.751Z,15.09
2019-04-16T11:57:13.949Z,14.61
2019-04-16T11:59:42.337Z,14.97
2019-04-16T12:02:17.181Z,14.66
2019-04-16T12:04:59.329Z,14.67
2019-04-16T12:07:41.114Z,14.85
2019-04-16T12:10:30.178Z,15.19
2019-04-16T12:13:16.811Z,15.19
2019-04-16T12:15:55.178Z,15.15
2019-04-16T12:18:34.929Z,15.34
2019-04-16T12:21:09.705Z,15.14
2019-04-16T12:23:56.333Z,15.25
2019-04-16T12:26:36.392Z,15.21
2019-04-16T12:29:15.522Z,15.32
2019-04-16T12:32:04.317Z,15.31
2019-04-16T12:34:51.306Z,15.40
2019-04-16T12:37:48.395Z,15.40
2019-04-16T12:40:34.897Z,15.06
2019-04-16T12:43:08.797Z,15.32
2019-04-16T12:45:44.140Z,15.71
2019-04-16T12:48:34.764Z,15.24
2019-04-16T12:51:17.645Z,15.39
2019-04-16T12:53:57.693Z,15.24
2019-04-16T12:56:44.130Z,15.20
2019-04-16T12:59:44.036Z,15.12
2019-04-16T13:02:26.493Z,15.24
2019-04-16T13:04:59.622Z,15.44
2019-04-16T13:07:47.645Z,15.61
2019-04-16T13:10:24.959Z,15.86
2019-04-16T13:13:31.142Z,15.70
2019-04-16T13:16:17.725Z,15.35
2019-04-16T13:19:11.059Z,15.13
2019-04-16T13:21:51.705Z,15.49
2019-04-16T13:24:36.395Z,15.50
2019-04-16T13:27:14.431Z,16.00
2019-04-16T13:29:42.764Z,15.85
2019-04-16T13:32:10.998Z,15.65
2019-04-16T13:34:39.173Z,15.72
2019-04-16T13:37:07.358Z,15.82
2019-04-16T13:40:01.557Z,15.79
2019-04-16T13:42:29.912Z,16.03
2019-04-16T13:45:17.272Z,15.95
2019-04-16T13:47:45.604Z,15.84
2019-04-16T13:50:21.622Z,16.06
2019-04-16T13:52:55.074Z,15.96
2019-04-16T13:55:44.638Z,15.89
2019-04-16T13:58:23.150Z,15.99
2019-04-16T14:00:55.912Z,16.25
2019-04-16T14:03:24.947Z,16.04
2019-04-16T14:05:53.776Z,15.96
2019-04-16T14:08:21.971Z,16.36
2019-04-16T14:10:50.114Z,16.49
2019-04-16T14:13:18.339Z,16.59
2019-04-16T14:15:46.666Z,16.69
2019-04-16T14:18:14.803Z,16.50
2019-04-16T14:20:43.090Z,16.39
2019-04-16T14:23:11.381Z,16.16
2019-04-16T14:25:39.608Z,16.31
2019-04-16T14:28:08.017Z,16.22
2019-04-16T14:30:42.692Z,16.19
2019-04-16T14:33:13.413Z,16.15
2019-04-16T14:35:41.645Z,16.32
2019-04-16T14:38:10.946Z,16.30
2019-04-16T14:40:39.636Z,16.47
2019-04-16T14:43:09.512Z,16.48
2019-04-16T14:45:58.368Z,16.41
2019-04-16T14:48:18.800Z,16.40
2019-04-16T14:50:46.977Z,16.38
2019-04-16T14:53:36.000Z,16.39
2019-04-16T14:56:12.540Z,16.34
2019-04-16T14:58:46.211Z,16.14
2019-04-16T15:01:43.187Z,16.32
2019-04-16T15:04:30.961Z,16.61
2019-04-16T15:07:14.120Z,16.76
2019-04-16T15:10:11.316Z,16.79
2019-04-16T15:12:49.896Z,16.71
2019-04-16T15:15:39.756Z,16.84
2019-04-16T15:18:28.222Z,16.74
2019-04-16T15:21:14.888Z,16.86
2019-04-16T15:24:02.139Z,16.59
2019-04-16T15:26:52.101Z,16.65
2019-04-16T15:29:44.551Z,16.73
2019-04-16T15:32:41.246Z,16.37
2019-04-16T15:35:14.935Z,16.44
2019-04-16T15:38:08.372Z,16.26
2019-04-16T15:40:40.353Z,16.37
2019-04-16T15:43:19.588Z,16.43
2019-04-16T15:46:26.341Z,16.47
2019-04-16T15:49:23.121Z,16.39
2019-04-16T15:52:10.111Z,16.36
2019-04-16T15:54:51.474Z,16.53
2019-04-16T15:57:49.515Z,16.72
2019-04-16T16:00:36.127Z,16.54
2019-04-16T16:03:20.023Z,16.34
2019-04-16T16:05:52.954Z,16.53
2019-04-16T16:08:26.986Z,16.69
2019-04-16T16:10:59.138Z,16.38
2019-04-16T16:13:27.571Z,16.42
2019-04-16T16:15:55.870Z,16.29
2019-04-16T16:18:24.249Z,16.32
2019-04-16T16:20:52.549Z,16.20
2019-04-16T16:23:20.682Z,16.09
2019-04-16T16:25:48.868Z,16.11
2019-04-16T16:28:17.071Z,16.11
2019-04-16T16:30:45.378Z,16.08
2019-04-16T16:33:13.524Z,16.07
2019-04-16T16:35:56.532Z,16.10
2019-04-16T16:38:14.079Z,16.02
2019-04-16T16:40:41.923Z,15.97
2019-04-16T16:43:10.061Z,15.95
2019-04-16T16:45:47.327Z,15.87
2019-04-16T16:48:15.583Z,15.83
2019-04-16T16:50:44.626Z,15.85
2019-04-16T16:53:24.215Z,15.83
2019-04-16T16:55:56.581Z,15.75
2019-04-16T16:58:52.429Z,15.86
2019-04-16T17:01:40.608Z,15.72
2019-04-16T17:04:28.316Z,15.52
2019-04-16T17:06:56.619Z,15.55
2019-04-16T17:09:33.465Z,15.50
2019-04-16T17:12:01.773Z,15.38
2019-04-16T17:14:30.014Z,15.34
2019-04-16T17:17:11.849Z,15.36
2019-04-16T17:19:28.447Z,15.29
2019-04-16T17:21:56.671Z,15.30
2019-04-16T17:24:24.891Z,15.16
2019-04-16T17:26:53.199Z,15.10
2019-04-16T17:29:21.558Z,14.99
2019-04-16T17:31:50.393Z,15.03
2019-04-16T17:34:18.648Z,14.97
2019-04-16T17:36:46.965Z,14.93
2019-04-16T17:39:21.603Z,14.79
2019-04-16T17:41:59.698Z,14.91
2019-04-16T17:44:35.692Z,14.73
2019-04-16T17:47:31.998Z,14.79
2019-04-16T17:50:16.591Z,14.57
2019-04-16T17:53:05.106Z,14.58
2019-04-16T17:55:59.928Z,14.42
2019-04-16T17:58:36.370Z,14.35
2019-04-16T18:01:21.595Z,14.25
2019-04-16T18:04:28.542Z,14.19
2019-04-16T18:07:23.777Z,14.05
2019-04-16T18:10:04.360Z,13.95
2019-04-16T18:12:55.404Z,13.84
2019-04-16T18:15:42.551Z,13.82
2019-04-16T18:18:21.153Z,13.65
2019-04-16T18:21:13.560Z,13.54
2019-04-16T18:24:03.141Z,13.46
2019-04-16T18:26:52.830Z,13.32
2019-04-16T18:29:31.697Z,13.19
2019-04-16T18:32:21.408Z,13.23
2019-04-16T18:35:16.083Z,13.16
2019-04-16T18:38:19.132Z,12.97
2019-04-16T18:41:21.860Z,12.91
2019-04-16T18:44:08.600Z,12.89
2019-04-16T18:47:03.788Z,12.84
2019-04-16T18:49:30.047Z,12.77
2019-04-16T18:51:58.291Z,12.74
2019-04-16T18:54:26.623Z,12.68
2019-04-16T18:56:54.811Z,12.64
2019-04-16T18:59:22.956Z,12.55
2019-04-16T19:01:54.524Z,12.58
2019-04-16T19:04:22.838Z,12.56
2019-04-16T19:06:51.084Z,12.53
2019-04-16T19:09:20.992Z,12.43
2019-04-16T19:11:49.439Z,12.33
2019-04-16T19:14:17.561Z,12.34
2019-04-16T19:16:45.778Z,12.28
2019-04-16T19:19:13.980Z,12.29
2019-04-16T19:21:42.677Z,12.27
2019-04-16T19:24:11.220Z,12.25
2019-04-16T19:26:39.423Z,12.19
2019-04-16T19:29:13.113Z,12.12
2019-04-16T19:31:38.084Z,12.19
2019-04-16T19:34:10.210Z,12.11
2019-04-16T19:36:36.383Z,12.04
2019-04-16T19:39:07.113Z,12.07
2019-04-16T19:41:36.462Z,12.06
2019-04-16T19:44:07.716Z,11.93
2019-04-16T19:46:40.744Z,11.87
2019-04-16T19:49:13.285Z,11.91
2019-04-16T19:51:46.480Z,11.83
2019-04-16T19:54:14.942Z,11.86
2019-04-16T19:56:43.108Z,11.88
2019-04-16T19:59:11.434Z,11.83
2019-04-16T20:01:39.694Z,11.86
2019-04-16T20:04:10.715Z,11.75
2019-04-16T20:06:38.033Z,11.81
2019-04-16T20:09:08.957Z,11.71
2019-04-16T20:11:38.957Z,11.68
2019-04-16T20:14:07.582Z,11.67
2019-04-16T20:16:35.844Z,11.63
2019-04-16T20:19:04.156Z,11.64
2019-04-16T20:21:32.346Z,11.58
2019-04-16T20:24:00.502Z,11.57
2019-04-16T20:26:29.302Z,11.53
2019-04-16T20:28:58.743Z,11.49
2019-04-16T20:31:27.988Z,11.41
2019-04-16T20:33:56.272Z,11.45
2019-04-16T20:36:24.592Z,11.39
2019-04-16T20:38:52.760Z,11.36
2019-04-16T20:41:21.732Z,11.27
2019-04-16T20:43:49.945Z,11.26
2019-04-16T20:46:18.167Z,11.27
2019-04-16T20:48:46.390Z,11.23
2019-04-16T20:51:14.803Z,11.12
2019-04-16T20:53:43.027Z,11.11
2019-04-16T20:56:11.481Z,10.94
2019-04-16T20:58:39.756Z,10.91
2019-04-16T21:01:08.052Z,10.94
2019-04-16T21:03:36.348Z,10.94
2019-04-16T21:06:07.592Z,10.94
2019-04-16T21:08:34.788Z,10.87
2019-04-16T21:11:07.884Z,10.89
2019-04-16T21:13:33.420Z,10.88
2019-04-16T21:16:02.857Z,10.85
2019-04-16T21:18:32.722Z,10.84
2019-04-16T21:21:02.960Z,10.88
2019-04-16T21:23:31.946Z,10.73
2019-04-16T21:26:01.739Z,10.78
2019-04-16T21:28:36.455Z,10.75
2019-04-16T21:31:12.979Z,10.78
2019-04-16T21:34:02.345Z,10.63
2019-04-16T21:36:58.990Z,10.63
2019-04-16T21:39:33.064Z,10.55
2019-04-16T21:42:03.268Z,10.52
2019-04-16T21:44:31.965Z,10.45
2019-04-16T21:47:00.101Z,10.45
2019-04-16T21:49:38.436Z,10.45
2019-04-16T21:52:06.947Z,10.41
2019-04-16T21:54:35.549Z,10.34
2019-04-16T21:57:03.903Z,10.34
2019-04-16T21:59:32.179Z,10.32
2019-04-16T22:02:01.233Z,10.23
2019-04-16T22:04:29.408Z,10.20
2019-04-16T22:06:57.777Z,10.23
2019-04-16T22:09:25.958Z,10.16
2019-04-16T22:11:54.122Z,10.05
2019-04-16T22:14:22.978Z,10.07
2019-04-16T22:16:51.369Z,10.06
2019-04-16T22:19:19.593Z,10.01
2019-04-16T22:21:47.753Z,9.97
2019-04-16T22:24:15.899Z,9.98
2019-04-16T22:26:44.134Z,10.01
2019-04-16T22:29:15.364Z,9.89
2019-04-16T22:31:42.409Z,9.82
2019-04-16T22:34:10.836Z,9.86
2019-04-16T22:36:39.011Z,9.95
2019-04-16T22:39:20.446Z,9.85
2019-04-16T22:42:01.148Z,9.96
2019-04-16T22:44:51.119Z,9.86
2019-04-16T22:47:24.564Z,9.91
2019-04-16T22:49:56.752Z,9.85
2019-04-16T22:52:22.843Z,9.89
2019-04-16T22:54:52.961Z,9.86
2019-04-16T22:57:21.145Z,9.83
2019-04-16T22:59:49.315Z,9.73
2019-04-16T23:02:26.385Z,9.77
2019-04-16T23:04:57.658Z,9.74
2019-04-16T23:07:24.853Z,9.71
2019-04-16T23:09:52.978Z,9.66
2019-04-16T23:12:21.173Z,9.61
2019-04-16T23:14:49.341Z,9.66
2019-04-16T23:17:19.736Z,9.73
2019-04-16T23:19:47.895Z,9.72
2019-04-16T23:22:16.076Z,9.63
2019-04-16T23:24:44.311Z,9.61
2019-04-16T23:27:12.719Z,9.62
2019-04-16T23:29:40.933Z,9.59
2019-04-16T23:32:09.146Z,9.59
2019-04-16T23:34:37.941Z,9.56
2019-04-16T23:37:07.408Z,9.48
2019-04-16T23:39:36.708Z,9.45
2019-04-16T23:42:05.878Z,9.41
2019-04-16T23:45:09.047Z,9.45
2019-04-16T23:47:56.960Z,9.31
2019-04-16T23:50:44.861Z,9.34
2019-04-16T23:53:17.833Z,9.31
2019-04-16T23:55:55.073Z,9.28
2019-04-16T23:58:31.126Z,9.27
